createdAt,value
2017-07-29T00:00:53.626Z,16.88
2017-07-29T00:01:54.860Z,16.95
2017-07-29T00:02:56.116Z,16.92
2017-07-29T00:03:57.360Z,16.95
2017-07-29T00:04:58.601Z,16.92
2017-07-29T00:05:59.852Z,16.93
2017-07-29T00:07:01.184Z,16.93
2017-07-29T00:08:02.419Z,16.88
2017-07-29T00:09:03.657Z,16.93
2017-07-29T00:10:04.906Z,16.93
2017-07-29T00:11:06.148Z,16.9
2017-07-29T00:12:07.389Z,16.9
2017-07-29T00:13:08.693Z,16.88
2017-07-29T00:14:09.914Z,16.89
2017-07-29T00:15:11.243Z,16.9
2017-07-29T00:16:12.482Z,16.89
2017-07-29T00:17:13.757Z,16.86
2017-07-29T00:18:15.032Z,16.88
2017-07-29T00:19:16.266Z,16.92
2017-07-29T00:20:17.552Z,16.9
2017-07-29T00:21:18.799Z,16.89
2017-07-29T00:22:20.038Z,16.86
2017-07-29T00:23:21.305Z,16.86
2017-07-29T00:24:22.551Z,16.89
2017-07-29T00:25:23.825Z,16.85
2017-07-29T00:26:25.092Z,16.86
2017-07-29T00:27:26.333Z,16.81
2017-07-29T00:28:27.570Z,16.83
2017-07-29T00:29:28.882Z,16.77
2017-07-29T00:30:30.107Z,16.83
2017-07-29T00:31:31.379Z,16.81
2017-07-29T00:32:32.628Z,16.85
2017-07-29T00:33:33.867Z,16.9
2017-07-29T00:34:35.115Z,16.88
2017-07-29T00:35:36.357Z,16.86
2017-07-29T00:36:37.590Z,16.9
2017-07-29T00:37:38.965Z,16.89
2017-07-29T00:38:40.202Z,16.77
2017-07-29T00:39:41.442Z,16.86
2017-07-29T00:40:42.673Z,16.81
2017-07-29T00:41:43.911Z,16.89
2017-07-29T00:42:45.272Z,16.85
2017-07-29T00:43:46.526Z,16.88
2017-07-29T00:44:47.878Z,16.83
2017-07-29T00:45:49.134Z,16.9
2017-07-29T00:46:50.383Z,16.83
2017-07-29T00:47:51.633Z,16.83
2017-07-29T00:48:52.872Z,16.85
2017-07-29T00:49:54.134Z,16.9
2017-07-29T00:50:55.403Z,16.88
2017-07-29T00:51:56.642Z,16.88
2017-07-29T00:52:57.885Z,16.83
2017-07-29T00:53:59.148Z,16.85
2017-07-29T00:55:00.382Z,16.86
2017-07-29T00:56:01.638Z,16.93
2017-07-29T00:57:02.871Z,16.88
2017-07-29T00:58:04.115Z,16.89
2017-07-29T00:59:05.342Z,16.88
2017-07-29T01:00:06.584Z,16.85
2017-07-29T01:01:07.833Z,16.89
2017-07-29T01:02:09.110Z,16.89
2017-07-29T01:03:10.324Z,16.86
2017-07-29T01:04:11.681Z,16.92
2017-07-29T01:05:12.921Z,16.9
2017-07-29T01:06:14.158Z,16.95
2017-07-29T01:07:15.403Z,16.93
2017-07-29T01:08:16.665Z,16.96
2017-07-29T01:09:17.910Z,16.95
2017-07-29T01:10:19.236Z,16.89
2017-07-29T01:11:20.467Z,16.9
2017-07-29T01:12:21.703Z,16.92
2017-07-29T01:13:22.946Z,16.95
2017-07-29T01:14:24.210Z,16.9
2017-07-29T01:15:25.565Z,16.93
2017-07-29T01:16:26.817Z,16.95
2017-07-29T01:17:28.038Z,16.95
2017-07-29T01:18:29.291Z,16.93
2017-07-29T01:19:30.528Z,16.89
2017-07-29T01:20:31.807Z,16.9
2017-07-29T01:21:33.206Z,16.93
2017-07-29T01:22:34.449Z,16.89
2017-07-29T01:23:35.684Z,16.9
2017-07-29T01:24:36.924Z,16.9
2017-07-29T01:25:38.166Z,16.95
2017-07-29T01:26:39.421Z,16.96
2017-07-29T01:27:40.664Z,16.9
2017-07-29T01:28:41.951Z,16.88
2017-07-29T01:29:43.190Z,16.95
2017-07-29T01:30:44.443Z,16.93
2017-07-29T01:31:45.826Z,16.96
2017-07-29T01:32:47.129Z,16.95
2017-07-29T01:33:48.385Z,16.95
2017-07-29T01:34:49.613Z,16.98
2017-07-29T01:35:50.860Z,16.95
2017-07-29T01:36:52.107Z,16.92
2017-07-29T01:37:53.356Z,16.99
2017-07-29T01:38:54.619Z,16.95
2017-07-29T01:39:55.881Z,17.03
2017-07-29T01:40:57.120Z,17.03
2017-07-29T01:41:58.360Z,17.03
2017-07-29T01:42:59.639Z,17
2017-07-29T01:44:00.962Z,17.08
2017-07-29T01:45:02.245Z,17.11
2017-07-29T01:46:03.516Z,17.06
2017-07-29T01:47:04.773Z,17.04
2017-07-29T01:48:06.034Z,17.06
2017-07-29T01:49:07.315Z,16.98
2017-07-29T01:50:08.524Z,17.07
2017-07-29T01:51:09.823Z,17.07
2017-07-29T01:52:11.132Z,17.06
2017-07-29T01:53:12.415Z,17.06
2017-07-29T01:54:13.671Z,17.06
2017-07-29T01:55:14.929Z,17.15
2017-07-29T01:56:16.157Z,17.13
2017-07-29T01:57:17.500Z,17.14
2017-07-29T01:58:18.885Z,17.13
2017-07-29T01:59:20.206Z,17.04
2017-07-29T02:00:21.455Z,17.1
2017-07-29T02:01:22.684Z,17.1
2017-07-29T02:02:23.925Z,17.11
2017-07-29T02:03:25.290Z,17.14
2017-07-29T02:04:26.543Z,17.11
2017-07-29T02:05:27.808Z,17.13
2017-07-29T02:06:29.075Z,17.11
2017-07-29T02:07:30.334Z,17.1
2017-07-29T02:08:31.571Z,17.11
2017-07-29T02:09:32.819Z,17.11
2017-07-29T02:10:34.080Z,17.06
2017-07-29T02:11:35.354Z,17.18
2017-07-29T02:12:36.620Z,17.15
2017-07-29T02:13:37.866Z,17.1
2017-07-29T02:14:39.114Z,17.17
2017-07-29T02:15:40.362Z,17.17
2017-07-29T02:16:41.619Z,17.18
2017-07-29T02:17:42.872Z,17.17
2017-07-29T02:18:44.133Z,17.2
2017-07-29T02:19:45.401Z,17.25
2017-07-29T02:20:46.638Z,17.2
2017-07-29T02:21:47.890Z,17.15
2017-07-29T02:22:49.145Z,17.28
2017-07-29T02:23:50.394Z,17.28
2017-07-29T02:24:51.708Z,17.28
2017-07-29T02:25:52.943Z,17.22
2017-07-29T02:26:54.184Z,17.29
2017-07-29T02:27:55.419Z,17.25
2017-07-29T02:28:56.670Z,17.28
2017-07-29T02:29:57.989Z,17.25
2017-07-29T02:30:59.258Z,17.32
2017-07-29T02:32:00.481Z,17.35
2017-07-29T02:33:01.786Z,17.32
2017-07-29T02:34:03.024Z,17.46
2017-07-29T02:35:04.254Z,17.35
2017-07-29T02:36:05.605Z,17.4
2017-07-29T02:37:06.851Z,17.41
2017-07-29T02:38:08.083Z,17.43
2017-07-29T02:39:09.340Z,17.43
2017-07-29T02:40:10.581Z,17.44
2017-07-29T02:41:11.831Z,17.43
2017-07-29T02:42:13.098Z,17.5
2017-07-29T02:43:14.386Z,17.51
2017-07-29T02:44:15.629Z,17.53
2017-07-29T02:45:16.868Z,17.51
2017-07-29T02:46:18.105Z,17.53
2017-07-29T02:47:19.384Z,17.55
2017-07-29T02:48:20.617Z,17.51
2017-07-29T02:49:21.884Z,17.48
2017-07-29T02:50:23.137Z,17.59
2017-07-29T02:51:24.392Z,17.57
2017-07-29T02:52:25.631Z,17.51
2017-07-29T02:53:26.875Z,17.59
2017-07-29T02:54:28.111Z,17.57
2017-07-29T02:55:29.426Z,17.64
2017-07-29T02:56:30.646Z,17.57
2017-07-29T02:57:31.902Z,17.62
2017-07-29T02:58:33.137Z,17.62
2017-07-29T02:59:34.377Z,17.62
2017-07-29T03:00:35.704Z,17.57
2017-07-29T03:01:36.948Z,17.62
2017-07-29T03:02:38.202Z,17.7
2017-07-29T03:03:39.441Z,17.57
2017-07-29T03:04:40.730Z,17.59
2017-07-29T03:05:41.967Z,17.73
2017-07-29T03:06:43.215Z,17.7
2017-07-29T03:07:44.439Z,17.67
2017-07-29T03:08:45.871Z,17.63
2017-07-29T03:09:47.116Z,17.67
2017-07-29T03:10:48.382Z,17.71
2017-07-29T03:11:49.607Z,17.78
2017-07-29T03:12:50.850Z,17.74
2017-07-29T03:13:52.111Z,17.78
2017-07-29T03:14:53.362Z,17.79
2017-07-29T03:15:54.601Z,17.71
2017-07-29T03:16:55.850Z,17.79
2017-07-29T03:17:57.095Z,17.76
2017-07-29T03:18:58.338Z,17.82
2017-07-29T03:19:59.596Z,17.76
2017-07-29T03:21:00.824Z,17.76
2017-07-29T03:22:02.065Z,17.76
2017-07-29T03:23:03.337Z,17.85
2017-07-29T03:24:04.884Z,17.81
2017-07-29T03:25:06.004Z,17.85
2017-07-29T03:26:07.325Z,17.82
2017-07-29T03:27:08.572Z,17.85
2017-07-29T03:28:09.877Z,17.79
2017-07-29T03:29:11.120Z,17.76
2017-07-29T03:30:12.359Z,17.82
2017-07-29T03:31:13.610Z,17.81
2017-07-29T03:32:14.859Z,17.84
2017-07-29T03:33:16.106Z,17.92
2017-07-29T03:34:17.387Z,17.87
2017-07-29T03:35:18.615Z,17.82
2017-07-29T03:36:19.858Z,17.91
2017-07-29T03:37:21.106Z,17.89
2017-07-29T03:38:22.345Z,17.94
2017-07-29T03:39:23.601Z,17.92
2017-07-29T03:40:24.883Z,17.94
2017-07-29T03:41:26.200Z,17.94
2017-07-29T03:42:27.440Z,17.91
2017-07-29T03:43:28.669Z,17.89
2017-07-29T03:44:29.917Z,17.97
2017-07-29T03:45:31.161Z,17.97
2017-07-29T03:46:32.394Z,17.97
2017-07-29T03:47:33.639Z,18
2017-07-29T03:48:34.892Z,17.94
2017-07-29T03:49:36.125Z,17.99
2017-07-29T03:50:37.374Z,18.1
2017-07-29T03:51:38.628Z,17.97
2017-07-29T03:52:39.858Z,18.07
2017-07-29T03:53:41.089Z,18.09
2017-07-29T03:54:42.329Z,18.07
2017-07-29T03:55:43.595Z,18.09
2017-07-29T03:56:44.808Z,18.06
2017-07-29T03:57:46.058Z,18.13
2017-07-29T03:58:47.305Z,18.09
2017-07-29T03:59:48.556Z,18.15
2017-07-29T04:00:49.876Z,18.18
2017-07-29T04:01:51.131Z,18.21
2017-07-29T04:02:52.389Z,18.12
2017-07-29T04:03:53.606Z,18.21
2017-07-29T04:04:54.846Z,18.18
2017-07-29T04:05:56.091Z,18.21
2017-07-29T04:06:57.442Z,18.22
2017-07-29T04:07:58.678Z,18.25
2017-07-29T04:08:59.953Z,18.24
2017-07-29T04:10:01.197Z,18.28
2017-07-29T04:11:02.434Z,18.27
2017-07-29T04:12:03.724Z,18.31
2017-07-29T04:13:04.969Z,18.28
2017-07-29T04:14:06.256Z,18.27
2017-07-29T04:15:07.703Z,18.31
2017-07-29T04:16:08.945Z,18.31
2017-07-29T04:17:10.181Z,18.31
2017-07-29T04:18:11.412Z,18.33
2017-07-29T04:19:12.648Z,18.42
2017-07-29T04:20:13.968Z,18.44
2017-07-29T04:21:15.206Z,18.43
2017-07-29T04:22:16.445Z,18.39
2017-07-29T04:23:17.689Z,18.42
2017-07-29T04:24:18.927Z,18.44
2017-07-29T04:25:20.193Z,18.52
2017-07-29T04:26:21.412Z,18.42
2017-07-29T04:27:22.672Z,18.43
2017-07-29T04:28:23.892Z,18.43
2017-07-29T04:29:25.131Z,18.43
2017-07-29T04:30:26.361Z,18.61
2017-07-29T04:31:27.667Z,18.44
2017-07-29T04:32:28.922Z,18.62
2017-07-29T04:33:30.261Z,18.47
2017-07-29T04:34:31.576Z,18.59
2017-07-29T04:35:32.829Z,18.62
2017-07-29T04:36:34.067Z,18.55
2017-07-29T04:37:35.313Z,18.52
2017-07-29T04:38:36.574Z,18.54
2017-07-29T04:39:37.824Z,18.67
2017-07-29T04:40:39.062Z,18.59
2017-07-29T04:41:40.301Z,18.64
2017-07-29T04:42:41.588Z,18.67
2017-07-29T04:43:42.889Z,18.67
2017-07-29T04:44:44.138Z,18.65
2017-07-29T04:45:45.374Z,18.7
2017-07-29T04:46:46.699Z,18.74
2017-07-29T04:47:47.935Z,18.76
2017-07-29T04:48:49.188Z,18.76
2017-07-29T04:49:50.425Z,18.84
2017-07-29T04:50:51.656Z,18.83
2017-07-29T04:51:52.920Z,18.84
2017-07-29T04:52:54.140Z,18.83
2017-07-29T04:53:55.385Z,18.9
2017-07-29T04:54:56.632Z,18.87
2017-07-29T04:55:57.878Z,18.86
2017-07-29T04:56:59.118Z,18.99
2017-07-29T04:58:00.436Z,18.94
2017-07-29T04:59:01.663Z,19.01
2017-07-29T05:00:02.919Z,19.01
2017-07-29T05:01:04.156Z,19.11
2017-07-29T05:02:05.431Z,18.95
2017-07-29T05:03:06.711Z,19.05
2017-07-29T05:04:07.954Z,19.1
2017-07-29T05:05:09.183Z,19.13
2017-07-29T05:06:10.444Z,19.14
2017-07-29T05:07:11.713Z,19.21
2017-07-29T05:08:12.948Z,19.23
2017-07-29T05:09:14.291Z,19.29
2017-07-29T05:10:15.526Z,19.28
2017-07-29T05:11:16.767Z,19.31
2017-07-29T05:12:18.012Z,19.36
2017-07-29T05:13:19.265Z,19.35
2017-07-29T05:14:20.514Z,19.51
2017-07-29T05:15:21.787Z,19.47
2017-07-29T05:16:23.020Z,19.58
2017-07-29T05:17:24.269Z,19.51
2017-07-29T05:18:25.512Z,19.6
2017-07-29T05:19:26.749Z,19.58
2017-07-29T05:20:27.989Z,19.61
2017-07-29T05:21:29.251Z,19.8
2017-07-29T05:22:30.491Z,19.75
2017-07-29T05:23:31.735Z,19.79
2017-07-29T05:24:33.064Z,19.84
2017-07-29T05:25:34.306Z,19.91
2017-07-29T05:26:35.583Z,19.94
2017-07-29T05:27:36.798Z,20.15
2017-07-29T05:28:38.058Z,20.24
2017-07-29T05:29:39.472Z,20.46
2017-07-29T05:30:40.862Z,20.56
2017-07-29T05:31:41.990Z,20.93
2017-07-29T05:32:43.215Z,21.17
2017-07-29T05:33:44.461Z,21.44
2017-07-29T05:34:45.707Z,21.6
2017-07-29T05:35:46.946Z,21.57
2017-07-29T05:36:48.184Z,21.44
2017-07-29T05:37:49.424Z,21.39
2017-07-29T05:38:50.659Z,21.2
2017-07-29T05:39:51.904Z,21.24
2017-07-29T05:40:53.265Z,21.11
2017-07-29T05:41:54.514Z,21.16
2017-07-29T05:42:55.751Z,21.04
2017-07-29T05:43:56.991Z,20.93
2017-07-29T05:44:58.227Z,20.76
2017-07-29T05:45:59.469Z,20.72
2017-07-29T05:47:00.704Z,20.62
2017-07-29T05:48:01.937Z,20.65
2017-07-29T05:49:03.336Z,20.64
2017-07-29T05:50:04.572Z,20.61
2017-07-29T05:51:05.836Z,20.68
2017-07-29T05:52:07.060Z,20.81
2017-07-29T05:53:08.300Z,21.32
2017-07-29T05:54:09.548Z,21.99
2017-07-29T05:55:10.806Z,22.59
2017-07-29T05:56:12.101Z,23.02
2017-07-29T05:57:13.352Z,23.19
2017-07-29T05:58:14.593Z,23.76
2017-07-29T05:59:15.836Z,24.05
2017-07-29T06:00:17.108Z,24.71
2017-07-29T06:01:18.454Z,25.2
2017-07-29T06:02:19.703Z,25.97
2017-07-29T06:03:20.952Z,26.67
2017-07-29T06:04:22.209Z,27.23
2017-07-29T06:05:23.522Z,27.86
2017-07-29T06:06:24.865Z,28.31
2017-07-29T06:07:26.105Z,28.16
2017-07-29T06:08:27.451Z,27.84
2017-07-29T06:09:28.746Z,27.42
2017-07-29T06:10:29.993Z,27.33
2017-07-29T06:11:31.244Z,27.05
2017-07-29T06:12:32.494Z,26.91
2017-07-29T06:13:33.867Z,26.69
2017-07-29T06:14:35.093Z,26.32
2017-07-29T06:15:36.334Z,25.87
2017-07-29T06:16:37.611Z,25.69
2017-07-29T06:17:38.856Z,26.02
2017-07-29T06:18:40.187Z,26.12
2017-07-29T06:19:41.442Z,26.54
2017-07-29T06:20:42.724Z,26.8
2017-07-29T06:21:43.948Z,26.86
2017-07-29T06:22:45.198Z,27.24
2017-07-29T06:23:46.442Z,27.17
2017-07-29T06:24:47.765Z,27.02
2017-07-29T06:25:49.010Z,27.04
2017-07-29T06:26:50.275Z,27.21
2017-07-29T06:27:51.536Z,27.1
2017-07-29T06:28:52.787Z,27.04
2017-07-29T06:29:54.054Z,26.73
2017-07-29T06:30:55.299Z,26.49
2017-07-29T06:31:56.548Z,26.39
2017-07-29T06:32:57.793Z,26.57
2017-07-29T06:33:59.049Z,26.52
2017-07-29T06:35:00.292Z,26.39
2017-07-29T06:36:01.635Z,26.39
2017-07-29T06:37:02.937Z,26.59
2017-07-29T06:38:04.218Z,26.77
2017-07-29T06:39:05.474Z,26.84
2017-07-29T06:40:06.735Z,26.83
2017-07-29T06:41:07.950Z,26.81
2017-07-29T06:42:09.219Z,26.8
2017-07-29T06:43:10.478Z,26.54
2017-07-29T06:44:11.735Z,26.37
2017-07-29T06:45:13.078Z,27.01
2017-07-29T06:46:14.207Z,27.47
2017-07-29T06:47:15.443Z,28.13
2017-07-29T06:48:16.695Z,28.72
2017-07-29T06:49:17.938Z,29.15
2017-07-29T06:50:19.265Z,29.25
2017-07-29T06:51:20.505Z,29.19
2017-07-29T06:52:21.801Z,29.08
2017-07-29T06:53:23.044Z,28.54
2017-07-29T06:54:24.287Z,28.48
2017-07-29T06:55:25.533Z,28.14
2017-07-29T06:56:26.783Z,28.06
2017-07-29T06:57:28.076Z,28.13
2017-07-29T06:58:29.337Z,28.56
2017-07-29T06:59:30.605Z,29.19
2017-07-29T07:00:31.853Z,29.71
2017-07-29T07:01:33.112Z,30.43
2017-07-29T07:02:34.373Z,30.81
2017-07-29T07:03:35.652Z,30.89
2017-07-29T07:04:36.936Z,31.3
2017-07-29T07:05:38.155Z,31.54
2017-07-29T07:06:39.402Z,31.73
2017-07-29T07:07:40.646Z,31.88
2017-07-29T07:08:41.902Z,32.58
2017-07-29T07:09:43.184Z,33.06
2017-07-29T07:10:44.450Z,33.27
2017-07-29T07:11:45.800Z,33.52
2017-07-29T07:12:47.083Z,33.34
2017-07-29T07:13:48.313Z,33.13
2017-07-29T07:14:49.601Z,33.46
2017-07-29T07:15:50.942Z,33.89
2017-07-29T07:16:52.186Z,33.94
2017-07-29T07:17:53.425Z,33.07
2017-07-29T07:18:54.678Z,32.02
2017-07-29T07:19:55.906Z,31.75
2017-07-29T07:20:57.282Z,31.24
2017-07-29T07:21:58.534Z,30.81
2017-07-29T07:22:59.810Z,30.12
2017-07-29T07:24:01.031Z,29.45
2017-07-29T07:25:02.279Z,28.84
2017-07-29T07:26:03.639Z,28.14
2017-07-29T07:27:04.916Z,27.62
2017-07-29T07:28:06.271Z,26.99
2017-07-29T07:29:07.517Z,26.47
2017-07-29T07:30:08.775Z,26.01
2017-07-29T07:31:10.022Z,25.57
2017-07-29T07:32:11.323Z,25.27
2017-07-29T07:33:12.578Z,24.92
2017-07-29T07:34:13.829Z,24.56
2017-07-29T07:35:15.085Z,24.44
2017-07-29T07:36:16.309Z,24.44
2017-07-29T07:37:17.609Z,24.44
2017-07-29T07:38:18.880Z,24.39
2017-07-29T07:39:20.193Z,24.37
2017-07-29T07:40:21.521Z,24.44
2017-07-29T07:41:22.801Z,24.61
2017-07-29T07:42:24.022Z,24.61
2017-07-29T07:43:25.260Z,24.54
2017-07-29T07:44:26.508Z,24.6
2017-07-29T07:45:27.781Z,24.6
2017-07-29T07:46:29.026Z,24.68
2017-07-29T07:47:30.273Z,24.77
2017-07-29T07:48:31.518Z,24.69
2017-07-29T07:49:32.765Z,24.75
2017-07-29T07:50:34.019Z,24.61
2017-07-29T07:51:35.271Z,24.56
2017-07-29T07:52:36.516Z,24.41
2017-07-29T07:53:37.761Z,24.24
2017-07-29T07:54:39.004Z,24.1
2017-07-29T07:55:40.251Z,24.04
2017-07-29T07:56:41.558Z,23.9
2017-07-29T07:57:42.803Z,23.72
2017-07-29T07:58:44.129Z,23.7
2017-07-29T07:59:45.462Z,23.6
2017-07-29T08:00:46.700Z,23.6
2017-07-29T08:01:47.941Z,23.5
2017-07-29T08:02:49.190Z,23.57
2017-07-29T08:03:50.468Z,23.46
2017-07-29T08:04:51.682Z,23.45
2017-07-29T08:05:53.024Z,23.35
2017-07-29T08:06:54.284Z,23.24
2017-07-29T08:07:55.543Z,23.22
2017-07-29T08:08:56.803Z,23.14
2017-07-29T08:09:58.035Z,23.12
2017-07-29T08:10:59.304Z,23.15
2017-07-29T08:12:00.557Z,23.19
2017-07-29T08:13:01.818Z,23.27
2017-07-29T08:14:03.061Z,23.5
2017-07-29T08:15:04.308Z,23.58
2017-07-29T08:16:05.588Z,23.71
2017-07-29T08:17:06.820Z,23.75
2017-07-29T08:18:08.167Z,23.83
2017-07-29T08:19:09.505Z,23.82
2017-07-29T08:20:10.859Z,23.76
2017-07-29T08:21:12.096Z,23.62
2017-07-29T08:22:13.342Z,23.42
2017-07-29T08:23:14.584Z,23.27
2017-07-29T08:24:15.840Z,23.2
2017-07-29T08:25:17.182Z,23.31
2017-07-29T08:26:18.426Z,23.49
2017-07-29T08:27:19.706Z,23.76
2017-07-29T08:28:20.950Z,23.85
2017-07-29T08:29:22.209Z,24.23
2017-07-29T08:30:23.518Z,24.75
2017-07-29T08:31:24.763Z,25.12
2017-07-29T08:32:26.004Z,25.37
2017-07-29T08:33:27.241Z,25.71
2017-07-29T08:34:28.485Z,26.02
2017-07-29T08:35:29.747Z,26.31
2017-07-29T08:36:31.061Z,26.54
2017-07-29T08:37:32.309Z,26.49
2017-07-29T08:38:33.560Z,26.69
2017-07-29T08:39:34.801Z,26.76
2017-07-29T08:40:36.040Z,26.77
2017-07-29T08:41:37.294Z,26.92
2017-07-29T08:42:38.545Z,26.86
2017-07-29T08:43:39.801Z,26.81
2017-07-29T08:44:41.071Z,26.57
2017-07-29T08:45:42.294Z,26.39
2017-07-29T08:46:43.540Z,26.01
2017-07-29T08:47:44.797Z,26.04
2017-07-29T08:48:46.055Z,25.79
2017-07-29T08:49:47.402Z,25.65
2017-07-29T08:50:48.666Z,25.54
2017-07-29T08:51:49.915Z,25.5
2017-07-29T08:52:51.159Z,25.32
2017-07-29T08:53:52.413Z,25.19
2017-07-29T08:54:53.661Z,25
2017-07-29T08:55:54.936Z,24.79
2017-07-29T08:56:56.256Z,24.56
2017-07-29T08:57:57.493Z,24.45
2017-07-29T08:58:58.750Z,24.6
2017-07-29T09:00:00.091Z,24.54
2017-07-29T09:01:01.358Z,24.75
2017-07-29T09:02:02.590Z,24.85
2017-07-29T09:03:03.841Z,24.98
2017-07-29T09:04:05.105Z,25.09
2017-07-29T09:05:06.337Z,25.25
2017-07-29T09:06:07.624Z,25.35
2017-07-29T09:07:08.881Z,25.59
2017-07-29T09:08:10.124Z,25.74
2017-07-29T09:09:11.375Z,25.83
2017-07-29T09:10:12.652Z,25.87
2017-07-29T09:11:13.899Z,25.74
2017-07-29T09:12:15.152Z,25.68
2017-07-29T09:13:16.385Z,25.56
2017-07-29T09:14:17.723Z,25.49
2017-07-29T09:15:18.985Z,25.61
2017-07-29T09:16:20.218Z,25.57
2017-07-29T09:17:21.486Z,25.53
2017-07-29T09:18:22.729Z,25.43
2017-07-29T09:19:24.019Z,25.72
2017-07-29T09:20:25.263Z,25.87
2017-07-29T09:21:26.524Z,26.02
2017-07-29T09:22:27.874Z,25.87
2017-07-29T09:23:29.115Z,25.68
2017-07-29T09:24:30.348Z,25.67
2017-07-29T09:25:31.602Z,25.39
2017-07-29T09:26:32.970Z,25.17
2017-07-29T09:27:34.318Z,25.22
2017-07-29T09:28:35.840Z,25.31
2017-07-29T09:29:37.077Z,25.25
2017-07-29T09:30:38.385Z,25.06
2017-07-29T09:31:39.681Z,25
2017-07-29T09:32:40.922Z,25.07
2017-07-29T09:33:42.172Z,25.12
2017-07-29T09:34:43.424Z,25.05
2017-07-29T09:35:44.677Z,25
2017-07-29T09:36:45.992Z,25.02
2017-07-29T09:37:47.268Z,24.87
2017-07-29T09:38:48.523Z,24.69
2017-07-29T09:39:49.788Z,24.57
2017-07-29T09:40:51.029Z,24.77
2017-07-29T09:41:52.271Z,24.68
2017-07-29T09:42:53.550Z,24.76
2017-07-29T09:43:54.810Z,24.64
2017-07-29T09:44:56.061Z,24.75
2017-07-29T09:45:57.300Z,24.75
2017-07-29T09:46:58.559Z,24.69
2017-07-29T09:47:59.908Z,24.73
2017-07-29T09:49:01.151Z,24.57
2017-07-29T09:50:02.415Z,24.49
2017-07-29T09:51:03.796Z,24.52
2017-07-29T09:52:05.026Z,24.56
2017-07-29T09:53:06.251Z,24.47
2017-07-29T09:54:07.603Z,24.61
2017-07-29T09:55:08.857Z,24.59
2017-07-29T09:56:10.152Z,24.39
2017-07-29T09:57:11.431Z,24.41
2017-07-29T09:58:12.765Z,24.45
2017-07-29T09:59:13.921Z,24.23
2017-07-29T10:00:15.212Z,24.14
2017-07-29T10:01:16.441Z,24
2017-07-29T10:02:17.765Z,23.89
2017-07-29T10:03:19.140Z,23.86
2017-07-29T10:04:20.332Z,23.97
2017-07-29T10:05:21.575Z,24
2017-07-29T10:06:22.830Z,24.07
2017-07-29T10:07:24.105Z,24.19
2017-07-29T10:08:25.379Z,24.41
2017-07-29T10:09:26.634Z,24.63
2017-07-29T10:10:27.903Z,25.01
2017-07-29T10:11:29.169Z,25.24
2017-07-29T10:12:30.456Z,25.62
2017-07-29T10:13:31.718Z,26.01
2017-07-29T10:14:33.077Z,26.31
2017-07-29T10:15:34.324Z,26.62
2017-07-29T10:16:35.613Z,26.74
2017-07-29T10:17:36.856Z,26.74
2017-07-29T10:18:38.139Z,26.94
2017-07-29T10:19:39.496Z,26.98
2017-07-29T10:20:40.743Z,26.86
2017-07-29T10:21:41.998Z,26.86
2017-07-29T10:22:43.254Z,26.68
2017-07-29T10:23:44.506Z,26.42
2017-07-29T10:24:45.783Z,26.25
2017-07-29T10:25:47.043Z,26.12
2017-07-29T10:26:48.295Z,26.08
2017-07-29T10:27:49.708Z,26.02
2017-07-29T10:28:50.964Z,26.12
2017-07-29T10:29:52.202Z,26.02
2017-07-29T10:30:53.469Z,25.84
2017-07-29T10:31:54.726Z,25.82
2017-07-29T10:32:55.973Z,25.61
2017-07-29T10:33:57.218Z,25.53
2017-07-29T10:34:58.465Z,25.5
2017-07-29T10:35:59.726Z,25.44
2017-07-29T10:37:00.975Z,25.5
2017-07-29T10:38:02.214Z,25.68
2017-07-29T10:39:03.489Z,25.74
2017-07-29T10:40:04.728Z,25.86
2017-07-29T10:41:05.975Z,25.87
2017-07-29T10:42:07.206Z,25.74
2017-07-29T10:43:08.465Z,25.74
2017-07-29T10:44:09.766Z,25.86
2017-07-29T10:45:11.091Z,25.87
2017-07-29T10:46:12.346Z,26.04
2017-07-29T10:47:13.640Z,26.05
2017-07-29T10:48:14.897Z,25.86
2017-07-29T10:49:16.146Z,25.69
2017-07-29T10:50:17.399Z,25.53
2017-07-29T10:51:18.659Z,25.35
2017-07-29T10:52:19.953Z,25.06
2017-07-29T10:53:21.192Z,25.07
2017-07-29T10:54:22.441Z,25.06
2017-07-29T10:55:23.713Z,25.05
2017-07-29T10:56:24.963Z,24.98
2017-07-29T10:57:26.334Z,24.69
2017-07-29T10:58:27.669Z,24.73
2017-07-29T10:59:28.938Z,24.54
2017-07-29T11:00:30.215Z,24.44
2017-07-29T11:01:31.431Z,24.44
2017-07-29T11:02:32.680Z,24.35
2017-07-29T11:03:33.923Z,24.32
2017-07-29T11:04:35.232Z,24.26
2017-07-29T11:05:36.472Z,24.31
2017-07-29T11:06:37.729Z,24.42
2017-07-29T11:07:38.993Z,24.22
2017-07-29T11:08:40.223Z,24.35
2017-07-29T11:09:41.473Z,24.45
2017-07-29T11:10:42.737Z,24.67
2017-07-29T11:11:44.098Z,24.57
2017-07-29T11:12:45.341Z,24.59
2017-07-29T11:13:46.578Z,24.56
2017-07-29T11:14:47.833Z,24.67
2017-07-29T11:15:49.148Z,24.73
2017-07-29T11:16:50.495Z,24.87
2017-07-29T11:17:51.782Z,25.07
2017-07-29T11:18:53.046Z,25.34
2017-07-29T11:19:54.276Z,25.44
2017-07-29T11:20:55.673Z,25.5
2017-07-29T11:21:56.954Z,25.74
2017-07-29T11:22:58.215Z,25.84
2017-07-29T11:23:59.460Z,25.91
2017-07-29T11:25:00.725Z,26.04
2017-07-29T11:26:01.976Z,26.08
2017-07-29T11:27:03.342Z,25.84
2017-07-29T11:28:04.605Z,25.77
2017-07-29T11:29:05.939Z,25.83
2017-07-29T11:30:07.185Z,25.89
2017-07-29T11:31:08.440Z,25.72
2017-07-29T11:32:09.719Z,25.8
2017-07-29T11:33:10.967Z,25.89
2017-07-29T11:34:12.220Z,25.75
2017-07-29T11:35:13.456Z,25.86
2017-07-29T11:36:14.706Z,25.71
2017-07-29T11:37:15.946Z,25.49
2017-07-29T11:38:17.182Z,25.27
2017-07-29T11:39:18.431Z,25.02
2017-07-29T11:40:19.732Z,24.95
2017-07-29T11:41:20.981Z,24.83
2017-07-29T11:42:22.279Z,24.64
2017-07-29T11:43:23.528Z,24.53
2017-07-29T11:44:24.790Z,24.42
2017-07-29T11:45:26.026Z,24.56
2017-07-29T11:46:27.338Z,24.47
2017-07-29T11:47:28.579Z,24.44
2017-07-29T11:48:29.825Z,24.63
2017-07-29T11:49:31.069Z,24.59
2017-07-29T11:50:32.317Z,24.79
2017-07-29T11:51:33.612Z,25.02
2017-07-29T11:52:34.841Z,25.13
2017-07-29T11:53:36.095Z,25.27
2017-07-29T11:54:37.349Z,25.34
2017-07-29T11:55:38.614Z,25.54
2017-07-29T11:56:39.847Z,25.86
2017-07-29T11:57:41.108Z,26.06
2017-07-29T11:58:42.463Z,26.37
2017-07-29T11:59:43.712Z,26.57
2017-07-29T12:00:44.947Z,26.73
2017-07-29T12:01:46.213Z,26.74
2017-07-29T12:02:47.441Z,26.92
2017-07-29T12:03:48.703Z,26.76
2017-07-29T12:04:49.975Z,26.79
2017-07-29T12:05:51.239Z,26.83
2017-07-29T12:06:52.478Z,26.74
2017-07-29T12:07:53.744Z,26.54
2017-07-29T12:08:54.986Z,26.49
2017-07-29T12:09:56.229Z,26.25
2017-07-29T12:10:57.485Z,26.24
2017-07-29T12:11:58.728Z,26.08
2017-07-29T12:12:59.984Z,26.06
2017-07-29T12:14:01.234Z,26.24
2017-07-29T12:15:02.483Z,26.37
2017-07-29T12:16:03.733Z,26.39
2017-07-29T12:17:04.969Z,26.58
2017-07-29T12:18:06.219Z,26.4
2017-07-29T12:19:07.589Z,26.39
2017-07-29T12:20:08.837Z,26.46
2017-07-29T12:21:10.090Z,26.58
2017-07-29T12:22:11.341Z,26.44
2017-07-29T12:23:12.584Z,26.36
2017-07-29T12:24:13.895Z,26.39
2017-07-29T12:25:15.151Z,26.42
2017-07-29T12:26:16.400Z,26.42
2017-07-29T12:27:17.692Z,26.35
2017-07-29T12:28:18.938Z,26.28
2017-07-29T12:29:20.197Z,26.12
2017-07-29T12:30:21.549Z,26.02
2017-07-29T12:31:22.800Z,25.84
2017-07-29T12:32:24.061Z,25.86
2017-07-29T12:33:25.318Z,25.83
2017-07-29T12:34:26.576Z,25.87
2017-07-29T12:35:27.854Z,25.75
2017-07-29T12:36:29.112Z,25.69
2017-07-29T12:37:30.352Z,25.71
2017-07-29T12:38:31.595Z,25.71
2017-07-29T12:39:32.867Z,25.8
2017-07-29T12:40:34.116Z,25.79
2017-07-29T12:41:35.366Z,25.86
2017-07-29T12:42:36.618Z,25.97
2017-07-29T12:43:37.865Z,25.98
2017-07-29T12:44:39.120Z,25.79
2017-07-29T12:45:40.386Z,25.87
2017-07-29T12:46:41.635Z,25.77
2017-07-29T12:47:42.880Z,25.68
2017-07-29T12:48:44.125Z,25.47
2017-07-29T12:49:45.397Z,25.46
2017-07-29T12:50:46.695Z,25.37
2017-07-29T12:51:47.929Z,25.43
2017-07-29T12:52:49.178Z,25.47
2017-07-29T12:53:50.431Z,25.72
2017-07-29T12:54:51.840Z,25.86
2017-07-29T12:55:53.129Z,25.83
2017-07-29T12:56:54.377Z,26.04
2017-07-29T12:57:55.739Z,26.08
2017-07-29T12:58:56.979Z,26.21
2017-07-29T12:59:58.225Z,26.25
2017-07-29T13:00:59.596Z,26.25
2017-07-29T13:02:00.837Z,26.27
2017-07-29T13:03:02.106Z,26.21
2017-07-29T13:04:03.369Z,26.05
2017-07-29T13:05:04.632Z,26.05
2017-07-29T13:06:05.898Z,25.9
2017-07-29T13:07:07.154Z,25.91
2017-07-29T13:08:08.413Z,25.99
2017-07-29T13:09:09.768Z,25.79
2017-07-29T13:10:11.069Z,25.79
2017-07-29T13:11:12.296Z,25.69
2017-07-29T13:12:13.645Z,25.68